Time;durP1;ratioP1;P1;durP2;ratioP2;P2;SDS_P1;SDS_P2;PMS_P1;PMS_P2;Temp;Humidity;BMP_temperature;BMP_pressure;BME280_temperature;BME280_humidity;BME280_pressure;Samples;Min_cycle;Max_cycle;Signal;HPM_P1;HPM_P2
2022/06/08 05:19:59;;;;;;;5.22;2.83;;;;;;;15.48;78.31;100837.50;5071251;27;96865;-32
2022/06/08 05:22:24;;;;;;;8.85;3.30;;;;;;;15.51;78.43;100841.84;5076468;27;99073;-33
2022/06/08 05:24:49;;;;;;;6.18;3.17;;;;;;;15.50;78.53;100827.34;5076923;27;97870;-33
2022/06/08 05:27:16;;;;;;;6.72;3.20;;;;;;;15.49;78.53;100822.88;5076973;27;96625;-33
2022/06/08 05:29:42;;;;;;;6.95;3.08;;;;;;;15.59;78.32;100827.56;5058931;27;96901;-33
2022/06/08 05:32:07;;;;;;;5.72;3.13;;;;;;;15.55;78.50;100817.91;5076324;27;110814;-33
2022/06/08 05:34:32;;;;;;;7.20;2.92;;;;;;;15.59;78.21;100812.06;5076618;27;97824;-33
2022/06/08 05:36:58;;;;;;;9.43;3.67;;;;;;;15.62;77.81;100802.75;5075965;27;99878;-34
2022/06/08 05:39:23;;;;;;;7.07;2.85;;;;;;;15.76;77.99;100810.69;5077168;27;96927;-33
2022/06/08 05:41:48;;;;;;;8.55;3.13;;;;;;;15.80;77.65;100803.09;5058059;27;99223;-33
2022/06/08 05:44:15;;;;;;;10.40;3.17;;;;;;;15.87;77.35;100804.28;5076602;27;97811;-33
2022/06/08 05:46:40;;;;;;;9.40;3.90;;;;;;;15.99;77.77;100800.53;5058849;27;96818;-33
2022/06/08 05:49:05;;;;;;;6.88;2.75;;;;;;;16.07;77.30;100802.63;5077025;27;96841;-33
2022/06/08 05:51:31;;;;;;;8.80;3.33;;;;;;;16.10;77.40;100794.16;5076285;27;100263;-33
2022/06/08 05:53:56;;;;;;;11.13;3.03;;;;;;;16.20;77.33;100794.22;5076694;27;97792;-33
2022/06/08 05:56:21;;;;;;;10.45;2.85;;;;;;;16.19;77.14;100789.78;5076827;27;96502;-33
2022/06/08 05:58:47;;;;;;;8.07;2.60;;;;;;;16.31;77.43;100797.75;5076628;27;96703;-33
2022/06/08 06:01:12;;;;;;;6.63;2.78;;;;;;;16.33;77.06;100789.44;5076102;27;97358;-33
2022/06/08 06:03:37;;;;;;;5.78;2.80;;;;;;;16.40;76.73;100787.00;5057664;27;99223;-33
2022/06/08 06:06:03;;;;;;;7.72;3.13;;;;;;;16.39;76.49;100779.81;5076484;27;96637;-33
2022/06/08 06:08:28;;;;;;;8.15;3.05;;;;;;;16.40;76.75;100778.81;5076394;27;96859;-33
2022/06/08 06:10:54;;;;;;;7.93;3.03;;;;;;;16.46;77.01;100773.69;5076216;27;97173;-33
2022/06/08 06:13:19;;;;;;;9.13;3.70;;;;;;;16.56;76.70;100782.84;5075308;27;97679;-33
2022/06/08 06:15:46;;;;;;;4.15;2.35;;;;;;;16.60;76.34;100774.34;5057793;27;96652;-33
2022/06/08 06:18:11;;;;;;;7.63;2.72;;;;;;;16.65;76.60;100774.81;5058244;27;96927;-33
2022/06/08 06:20:38;;;;;;;6.38;2.65;;;;;;;16.67;76.25;100775.53;5075499;27;97919;-33
2022/06/08 06:23:04;;;;;;;7.72;3.08;;;;;;;16.73;76.17;100774.97;5057345;27;100735;-33
2022/06/08 06:25:29;;;;;;;7.57;3.50;;;;;;;16.70;76.05;100764.31;5075698;27;96665;-33
2022/06/08 06:27:55;;;;;;;6.47;3.17;;;;;;;16.71;76.14;100782.47;5076065;27;96811;-33
2022/06/08 06:30:21;;;;;;;6.25;2.90;;;;;;;16.65;76.45;100772.06;5075608;27;99202;-33
2022/06/08 06:32:46;;;;;;;11.07;4.20;;;;;;;16.67;76.52;100779.13;5057375;27;100654;-33
2022/06/08 06:35:19;;;;;;;10.00;3.78;;;;;;;16.67;76.11;100765.47;5075819;27;96552;-33
2022/06/08 06:37:44;;;;;;;7.85;2.88;;;;;;;16.72;76.60;100765.91;5057680;27;96725;-34
2022/06/08 06:40:10;;;;;;;10.07;3.75;;;;;;;16.74;75.93;100768.53;5075751;27;97823;-33
2022/06/08 06:42:36;;;;;;;6.32;3.38;;;;;;;16.74;76.29;100760.31;5057462;27;101823;-33
2022/06/08 06:45:02;;;;;;;8.00;3.65;;;;;;;16.75;76.42;100765.63;5075860;27;96489;-33
2022/06/08 06:47:27;;;;;;;8.27;3.38;;;;;;;16.73;76.67;100770.41;5075963;27;96792;-33
2022/06/08 06:49:53;;;;;;;8.65;3.45;;;;;;;16.67;76.95;100772.81;5075244;27;97906;-33
2022/06/08 06:52:18;;;;;;;7.45;3.50;;;;;;;16.68;77.06;100775.38;5075288;27;98969;-33
2022/06/08 06:54:44;;;;;;;5.47;3.28;;;;;;;16.66;77.56;100762.84;5075985;27;96672;-33
2022/06/08 06:57:10;;;;;;;13.23;4.50;;;;;;;16.73;77.00;100750.38;5057128;27;96868;-33
2022/06/08 06:59:36;;;;;;;11.55;4.07;;;;;;;16.83;76.97;100762.28;5075389;27;97487;-33
2022/06/08 07:02:01;;;;;;;7.38;3.45;;;;;;;16.90;76.79;100760.72;5056796;27;100823;-33
2022/06/08 07:04:27;;;;;;;9.13;3.90;;;;;;;16.95;76.80;100752.94;5075666;27;96591;-34
2022/06/08 07:06:53;;;;;;;9.95;3.40;;;;;;;16.98;76.63;100757.28;5057518;27;96564;-33
2022/06/08 07:09:19;;;;;;;13.35;4.13;;;;;;;17.04;76.37;100744.91;5075142;27;99312;-33
2022/06/08 07:11:45;;;;;;;7.03;3.40;;;;;;;17.10;76.10;100738.88;5056706;27;100857;-33
2022/06/08 07:14:16;;;;;;;8.02;3.53;;;;;;;17.23;75.68;100744.09;5056295;27;96606;-33
2022/06/08 07:16:45;;;;;;;9.53;3.63;;;;;;;17.35;75.46;100738.38;5057101;27;96622;-33
2022/06/08 07:19:11;;;;;;;9.60;4.00;;;;;;;17.48;75.03;100745.47;5056381;27;100974;-33
2022/06/08 07:21:37;;;;;;;11.75;3.83;;;;;;;17.56;75.14;100740.13;5056312;27;101186;-33
2022/06/08 07:24:24;;;;;;;7.60;3.33;;;;;;;17.53;75.28;100732.19;5056910;27;96607;-33
2022/06/08 07:26:50;;;;;;;5.72;3.15;;;;;;;17.51;74.59;100735.06;5059614;27;96837;-33
2022/06/08 07:29:16;;;;;;;4.90;2.65;;;;;;;17.46;74.83;100742.84;5078811;27;97916;-33
2022/06/08 07:31:42;;;;;;;5.97;2.88;;;;;;;17.36;75.09;100736.50;5060405;27;100560;-33
2022/06/08 07:34:09;;;;;;;5.90;2.83;;;;;;;17.28;75.05;100742.69;5060392;27;96528;-33
2022/06/08 07:36:35;;;;;;;8.90;2.90;;;;;;;17.16;75.48;100733.72;5060333;27;96799;-33
2022/06/08 07:39:01;;;;;;;8.80;3.65;;;;;;;17.18;75.57;100731.72;5078197;27;98302;-33
2022/06/08 07:41:26;;;;;;;6.40;3.58;;;;;;;17.44;75.34;100731.16;5078756;27;97831;-33
2022/06/08 07:43:51;;;;;;;6.85;3.17;;;;;;;17.69;74.95;100737.13;5078983;27;96914;-33
2022/06/08 07:46:19;;;;;;;6.70;3.80;;;;;;;17.70;74.28;100726.00;5078667;27;96791;-34
2022/06/08 07:51:28;;;;;;;8.85;4.82;;;;;;;17.80;73.91;100715.03;5078679;27;96905;-33
2022/06/08 07:53:54;;;;;;;8.15;4.70;;;;;;;17.95;73.76;100726.50;5078452;27;96513;-33
2022/06/08 07:56:19;;;;;;;9.88;5.00;;;;;;;18.07;73.23;100719.84;5079196;27;96752;-33
2022/06/08 07:58:44;;;;;;;8.90;4.53;;;;;;;18.39;72.70;100722.22;5059484;27;100915;-33
2022/06/08 08:01:10;;;;;;;16.15;5.82;;;;;;;18.53;72.50;100722.75;5078433;27;97744;-33
2022/06/08 08:03:35;;;;;;;8.88;5.22;;;;;;;18.64;71.81;100720.69;5078476;27;96473;-33
2022/06/08 08:06:01;;;;;;;15.13;5.47;;;;;;;18.87;71.75;100723.09;5078390;27;96713;-33
2022/06/08 08:08:26;;;;;;;9.00;5.13;;;;;;;18.88;70.51;100722.09;5078010;27;98982;-33
2022/06/08 08:10:52;;;;;;;9.38;4.55;;;;;;;18.96;71.03;100732.31;5077909;27;99078;-33
2022/06/08 08:13:17;;;;;;;13.45;5.75;;;;;;;18.91;71.08;100726.41;5077988;27;96884;-33
2022/06/08 08:15:43;;;;;;;10.68;4.93;;;;;;;18.94;71.44;100731.59;5078706;27;96796;-33
2022/06/08 08:18:10;;;;;;;11.40;4.20;;;;;;;18.94;71.33;100726.94;5059512;27;101547;-33
2022/06/08 08:20:36;;;;;;;11.38;4.50;;;;;;;18.92;71.13;100728.97;5059466;27;101033;-33
2022/06/08 08:23:02;;;;;;;8.13;4.18;;;;;;;18.83;71.03;100722.53;5078211;27;96524;-33
2022/06/08 08:25:28;;;;;;;10.90;4.53;;;;;;;18.79;71.69;100728.47;5059529;27;96891;-33
2022/06/08 08:27:55;;;;;;;10.00;4.05;;;;;;;18.75;72.22;100721.53;5058622;27;101097;-33
2022/06/08 08:30:25;;;;;;;8.68;3.50;;;;;;;18.71;72.17;100722.81;5059282;27;100955;-33
2022/06/08 08:32:50;;;;;;;8.32;3.88;;;;;;;18.70;72.00;100718.38;5059504;27;96640;-33
2022/06/08 08:35:17;;;;;;;9.75;4.00;;;;;;;18.64;72.04;100722.59;5078088;27;96814;-33
2022/06/08 08:37:44;;;;;;;7.55;3.50;;;;;;;18.51;71.68;100722.91;5058487;27;101045;-33
2022/06/08 08:40:28;;;;;;;8.88;4.32;;;;;;;18.54;71.99;100738.19;5059159;27;100964;-33
2022/06/08 08:42:54;;;;;;;5.78;3.47;;;;;;;18.36;72.83;100733.47;5077890;27;96604;-33
2022/06/08 08:45:19;;;;;;;7.05;3.85;;;;;;;18.31;73.01;100726.72;5078224;27;96791;-33
2022/06/08 08:47:49;;;;;;;12.40;4.82;;;;;;;18.27;73.37;100730.75;5059262;27;100717;-33
2022/06/08 08:50:24;;;;;;;8.50;3.88;;;;;;;18.19;73.63;100735.09;5077186;27;100445;-33
2022/06/08 08:53:26;;;;;;;10.38;4.00;;;;;;;18.17;73.50;100736.28;5077005;27;96407;-33
2022/06/08 08:55:58;;;;;;;6.75;3.45;;;;;;;18.10;73.93;100744.22;5077228;27;96911;-33
2022/06/08 08:58:36;;;;;;;5.30;3.00;;;;;;;18.01;74.94;100729.50;5058781;27;101056;-33
2022/06/08 09:01:20;;;;;;;3.88;2.53;;;;;;;17.91;74.63;100736.00;5058776;27;100495;-33
2022/06/08 09:03:53;;;;;;;6.47;2.40;;;;;;;17.83;74.85;100740.34;5077873;27;96531;-33
2022/06/08 09:06:22;;;;;;;5.93;2.50;;;;;;;17.72;74.69;100728.63;5077542;27;97961;-33
2022/06/08 09:08:51;;;;;;;4.50;2.35;;;;;;;17.74;74.79;100738.41;5076921;27;99587;-33
2022/06/08 09:11:31;;;;;;;7.13;3.08;;;;;;;17.73;75.49;100733.97;5077344;27;97801;-33
2022/06/08 09:14:16;;;;;;;3.15;2.00;;;;;;;17.79;75.43;100735.25;5058705;27;96875;-33
2022/06/08 09:16:45;;;;;;;4.00;1.90;;;;;;;17.72;74.91;100731.34;5076565;27;96836;-33
2022/06/08 09:19:26;;;;;;;3.92;1.85;;;;;;;17.70;75.31;100739.69;5057997;27;100858;-33
2022/06/08 09:21:54;;;;;;;5.47;1.70;;;;;;;17.65;74.83;100727.47;5076534;27;98787;-33
2022/06/08 09:24:29;;;;;;;5.20;2.05;;;;;;;17.59;75.59;100724.28;5058746;27;96637;-33
2022/06/08 09:27:14;;;;;;;4.78;1.67;;;;;;;17.50;75.23;100735.22;5058785;27;96767;-33
2022/06/08 09:29:56;;;;;;;6.63;1.80;;;;;;;17.48;75.63;100729.03;5058293;27;100989;-33
2022/06/08 09:32:40;;;;;;;3.00;1.65;;;;;;;17.38;76.44;100732.63;5058268;27;99283;-33
2022/06/08 09:35:19;;;;;;;3.78;1.58;;;;;;;17.23;76.55;100739.47;5058392;27;96809;-33
2022/06/08 09:37:46;;;;;;;4.55;1.50;;;;;;;17.20;76.77;100728.81;5059029;27;96750;-33
2022/06/08 09:40:37;;;;;;;8.52;2.17;;;;;;;17.13;76.83;100736.72;5058153;27;101247;-33
2022/06/08 09:43:40;;;;;;;2.75;1.50;;;;;;;17.06;77.48;100732.81;5076292;27;99312;-33
2022/06/08 09:52:34;;;;;;;5.15;1.00;;;;;;;16.89;78.69;100723.41;5074790;27;97007;-33
2022/06/08 09:55:05;;;;;;;;;;;;;;;16.83;78.64;100732.19;5076665;27;99413;-33
2022/06/08 09:57:30;;;;;;;2.45;1.08;;;;;;;16.81;78.89;100736.06;5058151;27;97028;-33
2022/06/08 10:00:05;;;;;;;3.33;1.10;;;;;;;16.82;78.49;100738.63;5076754;27;96845;-33
2022/06/08 10:02:42;;;;;;;6.03;1.00;;;;;;;16.77;79.22;100739.00;5076188;27;98847;-33
2022/06/08 10:05:29;;;;;;;3.80;1.15;;;;;;;16.74;79.59;100735.69;5076644;27;97344;-33
2022/06/08 10:08:11;;;;;;;3.72;1.48;;;;;;;16.70;80.04;100728.75;5076662;27;96487;-33
2022/06/08 10:10:56;;;;;;;2.63;1.00;;;;;;;16.56;79.54;100738.19;5058054;27;96750;-33
2022/06/08 10:13:39;;;;;;;4.03;1.42;;;;;;;16.47;80.00;100739.88;5057063;27;101180;-33
2022/06/08 10:16:14;;;;;;;1.98;1.20;;;;;;;16.39;80.03;100739.69;5057695;27;101271;-33
2022/06/08 10:18:43;;;;;;;2.05;1.08;;;;;;;16.42;81.16;100744.91;5057838;27;96704;-33
2022/06/08 10:21:16;;;;;;;3.97;1.10;;;;;;;16.30;81.45;100745.94;5075555;27;96827;-33
2022/06/08 10:23:53;;;;;;;3.15;1.30;;;;;;;16.23;81.73;100750.22;5057490;27;100920;-33
2022/06/08 10:26:25;;;;;;;8.15;1.80;;;;;;;16.22;81.52;100748.50;5057346;27;100953;-33
2022/06/08 10:28:58;;;;;;;4.30;1.52;;;;;;;16.21;81.97;100746.75;5057768;27;96784;-33
2022/06/08 10:31:40;;;;;;;3.65;1.60;;;;;;;16.17;81.93;100737.97;5058190;27;96857;-33
2022/06/08 10:34:13;;;;;;;2.25;1.20;;;;;;;16.17;82.88;100739.84;5057390;27;100954;-33
2022/06/08 10:36:41;;;;;;;17.88;1.70;;;;;;;16.11;82.10;100735.75;5057248;27;101206;-33
2022/06/08 10:39:08;;;;;;;5.93;1.27;;;;;;;16.05;81.45;100734.44;5075397;27;97152;-33
2022/06/08 10:44:32;;;;;;;2.15;0.75;;;;;;;15.91;82.21;100737.47;5076160;27;97134;-33
2022/06/08 10:47:14;;;;;;;2.97;1.27;;;;;;;15.89;81.59;100742.22;5057137;27;100946;-33
2022/06/08 10:49:39;;;;;;;2.50;1.33;;;;;;;15.86;81.88;100746.06;5057313;27;96720;-33
2022/06/08 10:52:19;;;;;;;3.30;0.80;;;;;;;15.80;81.68;100737.53;5075967;27;96773;-33
2022/06/08 10:55:09;;;;;;;3.72;1.02;;;;;;;15.75;81.79;100737.06;5075596;27;97559;-33
2022/06/08 10:57:34;;;;;;;3.53;1.20;;;;;;;15.70;82.48;100729.25;5057480;27;97866;-33
2022/06/08 11:00:18;;;;;;;3.05;1.15;;;;;;;15.65;82.37;100737.81;5056779;27;96590;-33
2022/06/08 11:03:00;;;;;;;1.38;0.75;;;;;;;15.64;82.19;100727.91;5075713;27;96816;-33
2022/06/08 11:05:28;;;;;;;1.48;1.00;;;;;;;15.66;82.67;100736.81;5074816;27;99298;-33
2022/06/08 11:08:09;;;;;;;4.72;1.40;;;;;;;15.59;83.25;100730.16;5075411;27;97555;-33
2022/06/08 11:10:44;;;;;;;1.90;1.23;;;;;;;15.56;83.04;100740.44;5057191;27;96908;-32
2022/06/08 11:13:15;;;;;;;2.88;1.30;;;;;;;15.53;83.20;100729.78;5075761;27;96849;-33
2022/06/08 11:16:16;;;;;;;2.93;1.40;;;;;;;15.53;83.38;100740.72;5075212;27;97428;-33
2022/06/08 11:18:55;;;;;;;7.53;1.58;;;;;;;15.56;83.83;100729.53;5018456;27;101103;-33
2022/06/08 11:21:38;;;;;;;3.33;1.50;;;;;;;15.51;84.80;100732.66;5056393;27;99870;-33
2022/06/08 11:24:20;;;;;;;5.72;1.45;;;;;;;15.48;85.15;100722.84;5057490;27;96729;-33
2022/06/08 11:26:53;;;;;;;4.68;1.75;;;;;;;15.45;84.38;100719.53;5074938;27;99367;-33
2022/06/08 11:29:18;;;;;;;3.13;1.38;;;;;;;15.50;84.64;100720.00;5056606;27;100899;-33
2022/06/08 11:31:44;;;;;;;2.38;1.17;;;;;;;15.53;85.03;100719.72;5074895;27;96522;-33
2022/06/08 11:34:18;;;;;;;6.40;1.73;;;;;;;15.57;84.92;100723.09;5075523;27;96864;-33
2022/06/08 11:37:17;;;;;;;5.95;1.73;;;;;;;15.59;84.76;100712.88;5075351;27;97420;-33
2022/06/08 11:39:43;;;;;;;3.33;1.63;;;;;;;15.54;84.23;100713.28;5075116;27;97243;-33
2022/06/08 11:42:14;;;;;;;2.65;1.27;;;;;;;15.54;84.42;100716.03;5075015;27;96609;-33
2022/06/08 11:44:43;;;;;;;2.97;1.45;;;;;;;15.45;84.08;100703.16;5075334;27;96854;-33
2022/06/08 11:47:19;;;;;;;4.00;1.65;;;;;;;15.50;83.71;100706.34;5056369;27;101093;-33
2022/06/08 11:49:52;;;;;;;7.40;1.52;;;;;;;15.46;83.67;100716.66;5056755;27;101318;-33
2022/06/08 11:52:30;;;;;;;7.35;1.90;;;;;;;15.41;84.68;100709.84;5056788;27;96548;-33
2022/06/08 11:55:11;;;;;;;4.03;1.50;;;;;;;15.31;84.73;100701.56;5075074;27;96677;-33
2022/06/08 11:57:40;;;;;;;7.90;1.57;;;;;;;15.32;84.55;100699.72;5055832;27;100938;-33
2022/06/08 12:00:19;;;;;;;4.25;1.50;;;;;;;15.29;86.08;100703.56;5074583;27;97909;-33
2022/06/08 12:02:48;;;;;;;4.40;1.05;;;;;;;15.28;84.95;100704.56;5056485;27;96624;-33
2022/06/08 12:05:22;;;;;;;5.28;2.35;;;;;;;15.31;85.29;100703.44;5074798;27;96837;-33
2022/06/08 12:08:01;;;;;;;2.85;1.20;;;;;;;15.32;85.06;100699.72;5074454;27;99261;-33
2022/06/08 12:10:34;;;;;;;4.65;1.63;;;;;;;15.35;85.72;100699.44;5078725;27;97840;-33
2022/06/08 12:13:00;;;;;;;8.65;1.80;;;;;;;15.36;86.38;100685.69;5073750;27;97049;-33
2022/06/08 12:15:43;;;;;;;1.95;1.00;;;;;;;15.41;86.72;100691.59;5083151;27;96814;-34
2022/06/08 12:18:12;;;;;;;3.42;1.65;;;;;;;15.46;85.25;100686.63;5077773;27;99316;-33
2022/06/08 12:20:40;;;;;;;5.75;1.75;;;;;;;15.45;85.35;100689.50;5058722;27;101333;-32
2022/06/08 12:23:05;;;;;;;2.40;1.40;;;;;;;15.50;85.37;100682.66;5059319;27;96821;-33
2022/06/08 12:25:32;;;;;;;1.52;1.00;;;;;;;15.54;85.25;100680.53;5077984;27;96733;-34
2022/06/08 12:28:18;;;;;;;3.25;1.73;;;;;;;15.55;85.94;100681.41;5077913;27;97880;-33
2022/06/08 12:30:43;;;;;;;4.97;1.65;;;;;;;15.57;86.27;100674.81;5059381;27;100712;-33
2022/06/08 12:33:16;;;;;;;1.67;1.10;;;;;;;15.56;85.93;100672.19;5078156;27;96531;-33
2022/06/08 12:35:56;;;;;;;2.15;1.05;;;;;;;15.50;85.50;100673.59;5059199;27;96921;-33
2022/06/08 12:38:24;;;;;;;3.20;1.85;;;;;;;15.46;85.90;100663.94;5077449;27;98773;-33
2022/06/08 12:41:09;;;;;;;2.92;1.30;;;;;;;15.52;86.46;100666.16;5059510;27;101046;-33
2022/06/08 12:43:41;;;;;;;2.63;1.42;;;;;;;15.53;86.70;100661.53;5059475;27;96880;-34
2022/06/08 12:46:15;;;;;;;2.42;1.73;;;;;;;15.56;86.03;100659.41;5058261;27;96865;-34
2022/06/08 12:48:57;;;;;;;3.58;1.63;;;;;;;15.55;87.10;100645.91;5058150;27;100998;-33
2022/06/08 12:51:24;;;;;;;3.75;1.48;;;;;;;15.64;87.58;100659.63;5077520;27;98684;-33
2022/06/08 12:53:50;;;;;;;3.80;2.03;;;;;;;15.65;86.09;100652.28;5059168;27;96703;-33
2022/06/08 12:56:19;;;;;;;4.22;1.52;;;;;;;15.68;86.59;100649.28;5042261;27;97034;-33
2022/06/08 12:58:48;;;;;;;3.85;1.70;;;;;;;15.69;86.28;100646.44;5058475;27;100816;-33
2022/06/08 13:01:14;;;;;;;3.75;1.63;;;;;;;15.71;86.29;100644.47;5058809;27;101200;-33
2022/06/08 13:03:41;;;;;;;2.97;1.42;;;;;;;15.78;87.45;100642.09;5077698;27;96654;-33
2022/06/08 13:06:07;;;;;;;3.78;1.95;;;;;;;15.83;86.67;100641.69;5059143;27;96905;-33
2022/06/08 13:08:34;;;;;;;3.40;1.27;;;;;;;15.88;87.22;100644.88;5058605;27;101181;-33
2022/06/08 13:11:04;;;;;;;4.57;1.65;;;;;;;15.90;86.48;100634.69;5058663;27;100835;-33
2022/06/08 13:13:32;;;;;;;1.95;1.38;;;;;;;15.93;86.63;100634.41;5076395;27;96673;-33
2022/06/08 13:16:01;;;;;;;1.92;1.33;;;;;;;15.95;86.50;100634.28;5077131;27;96889;-33
2022/06/08 13:18:31;;;;;;;3.03;1.55;;;;;;;16.00;86.35;100645.69;5058592;27;101380;-33
2022/06/08 13:20:57;;;;;;;2.33;1.40;;;;;;;15.97;87.42;100638.63;5058175;27;100804;-33
2022/06/08 13:23:23;;;;;;;4.40;1.75;;;;;;;16.07;85.91;100636.78;5077323;27;96552;-33
2022/06/08 13:25:51;;;;;;;1.75;1.17;;;;;;;16.03;86.70;100626.28;5058535;27;96915;-33
2022/06/08 13:28:20;;;;;;;2.63;1.55;;;;;;;16.04;87.34;100622.53;5058331;27;101296;-33
2022/06/08 13:30:48;;;;;;;2.03;1.17;;;;;;;15.98;86.92;100620.34;5058604;27;100955;-33
2022/06/08 13:36:17;;;;;;;1.98;1.42;;;;;;;16.10;86.81;100632.94;5077316;27;96857;-33
2022/06/08 13:38:45;;;;;;;3.10;1.67;;;;;;;16.10;86.42;100624.72;5076028;27;97482;-33
2022/06/08 13:41:10;;;;;;;3.72;1.75;;;;;;;16.14;87.07;100635.25;5058299;27;99395;-33
2022/06/08 13:43:54;;;;;;;3.53;1.95;;;;;;;16.16;87.28;100636.97;5077198;27;96541;-33
2022/06/08 13:46:23;;;;;;;3.35;1.70;;;;;;;16.22;86.63;100636.44;5077060;27;96827;-33
2022/06/08 13:48:51;;;;;;;5.90;2.53;;;;;;;16.18;86.92;100645.91;5057803;27;101041;-33
2022/06/08 13:51:17;;;;;;;5.03;2.13;;;;;;;16.17;87.15;100649.66;5058140;27;100992;-33
2022/06/08 13:53:44;;;;;;;4.28;2.40;;;;;;;16.13;86.80;100646.31;5076839;27;96654;-33
2022/06/08 13:56:12;;;;;;;6.38;2.30;;;;;;;16.11;86.33;100634.66;5058775;27;96738;-33
2022/06/08 13:58:37;;;;;;;4.47;2.33;;;;;;;16.10;87.01;100639.25;5057981;27;101039;-33
2022/06/08 14:01:31;;;;;;;8.35;2.72;;;;;;;16.18;86.16;100637.72;5076685;27;97186;-33
2022/06/08 14:03:59;;;;;;;7.40;3.17;;;;;;;16.23;86.55;100640.91;5075661;27;96613;-33
2022/06/08 14:14:47;;;;;;;11.63;3.10;;;;;;;16.19;86.48;100636.72;5076793;27;96524;-33
2022/06/08 14:17:15;;;;;;;13.45;3.53;;;;;;;16.11;87.00;100631.91;5076185;27;96916;-33
2022/06/08 14:19:46;;;;;;;8.60;4.07;;;;;;;16.21;86.42;100643.78;5057011;27;101163;-33
2022/06/08 14:22:16;;;;;;;8.90;3.60;;;;;;;16.24;86.77;100646.22;5076888;27;96633;-33
2022/06/08 14:24:46;;;;;;;16.83;4.55;;;;;;;16.27;86.65;100647.81;5057697;27;96699;-33
2022/06/08 14:27:13;;;;;;;8.98;3.30;;;;;;;16.28;85.96;100642.25;5057604;27;97023;-33
2022/06/08 14:29:54;;;;;;;10.35;3.95;;;;;;;16.25;86.82;100634.28;5056718;27;102425;-33
2022/06/08 14:32:36;;;;;;;9.40;3.45;;;;;;;16.35;86.34;100640.69;5075657;27;98942;-33
2022/06/08 14:35:07;;;;;;;20.13;5.57;;;;;;;16.33;86.55;100630.91;5075190;27;96613;-33
2022/06/08 14:37:33;;;;;;;12.77;5.07;;;;;;;16.35;87.03;100640.69;5076051;27;96540;-33
2022/06/08 14:39:59;;;;;;;15.23;4.10;;;;;;;16.35;86.86;100645.25;5057358;27;100972;-33
2022/06/08 14:42:25;;;;;;;9.18;4.13;;;;;;;16.37;86.70;100637.78;5075906;27;97302;-33
2022/06/08 14:44:51;;;;;;;10.15;4.50;;;;;;;16.41;87.30;100631.06;5075735;27;96462;-33
2022/06/08 14:47:24;;;;;;;12.27;4.75;;;;;;;16.45;86.81;100639.88;5076243;27;96834;-33
2022/06/08 14:49:50;;;;;;;10.75;4.60;;;;;;;16.46;86.75;100639.72;5075596;27;99288;-33
2022/06/08 14:52:18;;;;;;;15.98;5.03;;;;;;;16.53;86.60;100632.69;5057113;27;100420;-33
2022/06/08 14:54:45;;;;;;;10.40;3.95;;;;;;;16.51;86.56;100636.56;5057037;27;96663;-33
2022/06/08 14:57:33;;;;;;;12.82;5.43;;;;;;;16.60;86.63;100654.88;5057361;27;96904;-33
2022/06/08 15:00:07;;;;;;;10.88;4.20;;;;;;;16.62;86.51;100644.66;5056943;27;100600;-33
2022/06/08 15:02:36;;;;;;;11.73;5.80;;;;;;;16.57;86.24;100630.56;5056985;27;101108;-33
2022/06/08 15:05:07;;;;;;;11.00;3.78;;;;;;;16.66;86.64;100647.97;5057133;27;96659;-33
2022/06/08 15:07:32;;;;;;;10.65;4.05;;;;;;;16.63;86.49;100642.78;5075662;27;96680;-33
2022/06/08 15:09:58;;;;;;;12.23;4.53;;;;;;;16.63;86.54;100640.91;5074899;27;99159;-33
2022/06/08 15:12:27;;;;;;;12.65;4.13;;;;;;;16.66;85.77;100631.56;5075600;27;97520;-33
2022/06/08 15:14:56;;;;;;;10.60;4.15;;;;;;;16.76;86.05;100647.03;5057162;27;96568;-33
2022/06/08 15:17:29;;;;;;;9.45;4.30;;;;;;;16.72;86.17;100650.16;5056938;27;96839;-33
2022/06/08 15:19:58;;;;;;;10.98;4.20;;;;;;;16.75;86.07;100644.41;5055768;27;101061;-33
2022/06/08 15:22:28;;;;;;;10.73;4.40;;;;;;;16.72;86.19;100650.16;5056785;27;100949;-34
2022/06/08 15:24:53;;;;;;;10.15;3.97;;;;;;;16.73;85.91;100661.00;5057007;27;96675;-33
2022/06/08 15:27:26;;;;;;;14.27;4.18;;;;;;;16.73;85.64;100654.63;5075279;27;96931;-33
2022/06/08 15:29:53;;;;;;;12.68;4.95;;;;;;;16.78;86.04;100660.56;5056746;27;101365;-33
2022/06/08 15:32:22;;;;;;;13.15;4.00;;;;;;;16.80;85.82;100646.75;5056647;27;101217;-33
2022/06/08 15:34:49;;;;;;;12.20;4.80;;;;;;;16.75;85.36;100638.94;5056689;27;96582;-33
2022/06/08 15:37:31;;;;;;;8.85;4.10;;;;;;;16.77;85.36;100646.00;5057049;27;97006;-33
2022/06/08 15:39:57;;;;;;;;;;;;;;;16.80;85.68;100644.88;5056909;27;101035;-33
2022/06/08 15:42:25;;;;;;;10.70;3.83;;;;;;;16.80;85.11;100644.88;5075229;27;97782;-33
2022/06/08 15:44:51;;;;;;;19.52;4.35;;;;;;;16.80;85.56;100644.88;5056265;27;96661;-33
2022/06/08 15:47:24;;;;;;;11.02;4.10;;;;;;;16.84;85.51;100650.97;5058513;27;96794;-33
2022/06/08 15:49:51;;;;;;;14.95;3.42;;;;;;;16.88;85.47;100655.16;5060049;27;101496;-33
2022/06/08 15:52:25;;;;;;;17.50;4.28;;;;;;;16.90;85.27;100655.84;5059959;27;101143;-33
2022/06/08 15:54:59;;;;;;;12.50;3.20;;;;;;;16.85;85.16;100647.22;5078907;27;96552;-33
2022/06/08 15:57:25;;;;;;;15.35;3.00;;;;;;;16.86;84.95;100663.50;5079005;27;96745;-33
2022/06/08 15:59:55;;;;;;;10.00;3.33;;;;;;;16.88;84.86;100653.28;5078515;27;98019;-33
2022/06/08 16:02:21;;;;;;;9.95;3.22;;;;;;;16.89;84.65;100652.25;5059989;27;100727;-33
2022/06/08 16:04:46;;;;;;;12.43;2.50;;;;;;;17.00;84.86;100655.91;5078472;27;96505;-33
2022/06/08 16:07:12;;;;;;;12.48;2.92;;;;;;;16.98;84.86;100642.34;5078456;27;96770;-33
2022/06/08 16:09:39;;;;;;;8.10;2.80;;;;;;;17.02;85.07;100653.88;5059323;27;101357;-33
2022/06/08 16:12:06;;;;;;;5.63;2.42;;;;;;;16.98;84.08;100648.69;5059320;27;100461;-34
2022/06/08 16:14:31;;;;;;;10.48;2.78;;;;;;;16.98;84.12;100643.22;5059809;27;96677;-33
2022/06/08 16:16:58;;;;;;;11.05;2.60;;;;;;;17.00;84.52;100648.56;5078429;27;97058;-34
2022/06/08 16:19:25;;;;;;;7.97;2.80;;;;;;;16.94;83.94;100639.00;5059423;27;101305;-33
2022/06/08 16:21:50;;;;;;;7.28;2.55;;;;;;;17.03;84.29;100651.00;5059101;27;100918;-33
2022/06/08 16:24:15;;;;;;;9.82;2.10;;;;;;;17.04;83.59;100654.59;5078511;27;96498;-33
2022/06/08 16:26:41;;;;;;;6.57;2.38;;;;;;;16.96;83.18;100647.09;5078392;27;96840;-33
2022/06/08 16:29:06;;;;;;;5.85;1.98;;;;;;;16.92;82.95;100654.75;5077769;27;97933;-34
2022/06/08 16:31:32;;;;;;;4.70;1.90;;;;;;;16.96;82.90;100649.84;5077929;27;97853;-33
2022/06/08 16:33:57;;;;;;;6.10;1.65;;;;;;;16.97;82.92;100652.44;5077906;27;96462;-33
2022/06/08 16:36:22;;;;;;;2.50;1.50;;;;;;;17.00;82.60;100658.63;5078022;27;96974;-33
2022/06/08 16:38:48;;;;;;;7.78;2.00;;;;;;;16.90;82.52;100651.28;5077886;27;97798;-33
2022/06/08 16:41:14;;;;;;;4.15;1.70;;;;;;;16.96;82.54;100664.38;5077839;27;98090;-33
2022/06/08 16:43:40;;;;;;;8.10;2.20;;;;;;;16.93;82.05;100661.94;5059156;27;96510;-33
2022/06/08 16:46:05;;;;;;;13.07;2.13;;;;;;;16.90;82.01;100667.69;5077911;27;96774;-33
2022/06/08 16:48:35;;;;;;;8.15;1.58;;;;;;;16.93;82.71;100670.13;5077672;27;97947;-33
2022/06/08 16:51:02;;;;;;;5.97;1.60;;;;;;;16.85;82.51;100659.03;5059391;27;100886;-33
2022/06/08 16:53:27;;;;;;;12.35;2.25;;;;;;;16.93;82.30;100672.00;5059237;27;96654;-33
2022/06/08 16:55:53;;;;;;;5.55;2.08;;;;;;;17.00;82.00;100675.91;5078069;27;96860;-33
2022/06/08 17:01:02;;;;;;;7.28;1.35;;;;;;;17.01;81.78;100676.78;5077453;27;97217;-33
2022/06/08 17:03:28;;;;;;;3.60;1.42;;;;;;;17.07;81.61;100685.28;5059219;27;96529;-33
2022/06/08 17:05:53;;;;;;;9.95;1.70;;;;;;;17.05;81.09;100681.84;5077715;27;96600;-33
2022/06/08 17:08:19;;;;;;;9.80;2.00;;;;;;;17.02;81.27;100681.22;5077127;27;99441;-33
2022/06/08 17:13:29;;;;;;;3.35;1.95;;;;;;;17.05;80.84;100687.31;5077495;27;96577;-33
2022/06/08 17:15:58;;;;;;;6.65;1.60;;;;;;;17.03;80.74;100691.19;5059345;27;96946;-33
2022/06/08 17:18:26;;;;;;;13.63;2.55;;;;;;;17.08;81.03;100695.22;5058490;27;100813;-33
2022/06/08 17:20:52;;;;;;;10.27;2.00;;;;;;;17.14;81.57;100699.28;5057815;27;100741;-33
2022/06/08 17:23:17;;;;;;;6.22;2.13;;;;;;;17.13;80.90;100700.28;5076899;27;96536;-33